Time;durP1;ratioP1;P1;durP2;ratioP2;P2;SDS_P1;SDS_P2;PMS_P1;PMS_P2;Temp;Humidity;BMP_temperature;BMP_pressure;BME280_temperature;BME280_humidity;BME280_pressure;Samples;Min_cycle;Max_cycle;Signal;HPM_P1;HPM_P2
2022/07/30 00:00:09;;;;;;;495.98;451.33;;;;;;;26.02;47.52;99528.41;322113;30;2637;-78
2022/07/30 00:00:19;;;;;;;495.70;450.98;;;;;;;26.04;47.25;99532.63;318184;31;1356;-78
2022/07/30 00:00:29;;;;;;;496.97;452.23;;;;;;;26.06;47.31;99525.25;318782;30;2946;-77
2022/07/30 00:00:40;;;;;;;499.00;453.87;;;;;;;26.06;47.16;99525.25;317816;30;3212;-77
2022/07/30 00:00:50;;;;;;;498.53;453.53;;;;;;;26.08;47.14;99533.13;317172;31;1441;-77
2022/07/30 00:01:01;;;;;;;497.17;452.13;;;;;;;26.06;47.20;99524.41;314308;31;3290;-77
2022/07/30 00:01:11;;;;;;;488.73;444.02;;;;;;;26.05;47.26;99528.09;313763;31;2897;-78
2022/07/30 00:01:21;;;;;;;485.03;440.50;;;;;;;26.02;47.36;99529.25;315707;31;3306;-78
2022/07/30 00:01:33;;;;;;;486.75;442.38;;;;;;;25.98;47.37;99525.25;314431;31;1464;-78
2022/07/30 00:01:44;;;;;;;493.00;448.45;;;;;;;25.98;47.51;99527.09;316212;31;2345;-78
2022/07/30 00:01:54;;;;;;;493.85;449.13;;;;;;;25.98;47.20;99522.56;314606;31;2035;-78
2022/07/30 00:02:04;;;;;;;494.47;449.60;;;;;;;26.00;47.48;99525.91;308377;31;1296;-78
2022/07/30 00:02:15;;;;;;;497.08;452.20;;;;;;;26.01;47.13;99527.59;312176;31;3127;-78
2022/07/30 00:02:26;;;;;;;495.95;451.30;;;;;;;26.02;47.29;99520.38;310479;31;3989;-78
2022/07/30 00:02:36;;;;;;;495.77;451.20;;;;;;;26.00;47.37;99531.25;307259;31;4463;-78
2022/07/30 00:02:47;;;;;;;491.27;446.77;;;;;;;25.97;47.40;99520.06;305119;32;1268;-78
2022/07/30 00:02:58;;;;;;;493.98;449.23;;;;;;;25.97;47.52;99528.09;303695;32;4460;-78
2022/07/30 00:03:08;;;;;;;491.80;446.90;;;;;;;26.00;47.43;99520.53;302111;32;4709;-78
2022/07/30 00:03:19;;;;;;;493.58;448.52;;;;;;;26.01;47.33;99524.91;306132;32;1431;-78
2022/07/30 00:03:29;;;;;;;495.17;450.00;;;;;;;26.00;47.29;99523.22;302333;32;4241;-78
2022/07/30 00:03:39;;;;;;;499.43;454.33;;;;;;;25.94;47.56;99526.59;301880;32;4382;-79
2022/07/30 00:03:50;;;;;;;498.52;453.58;;;;;;;25.93;47.50;99519.53;302404;32;1387;-79
2022/07/30 00:04:00;;;;;;;495.57;450.70;;;;;;;25.93;47.41;99529.44;299604;32;3706;-79
2022/07/30 00:04:11;;;;;;;497.02;452.02;;;;;;;25.94;47.46;99526.59;299248;32;3124;-79
2022/07/30 00:04:21;;;;;;;495.93;451.03;;;;;;;25.93;47.57;99524.91;297841;33;5442;-79
2022/07/30 00:04:31;;;;;;;492.02;447.30;;;;;;;25.88;47.77;99527.22;291353;34;1297;-79
2022/07/30 00:04:42;;;;;;;488.97;444.13;;;;;;;25.83;47.83;99521.50;291407;33;5737;-79
2022/07/30 00:04:52;;;;;;;487.43;442.50;;;;;;;25.78;47.99;99527.34;289897;33;6052;-79
2022/07/30 00:05:03;;;;;;;492.47;447.40;;;;;;;25.74;47.70;99519.78;287712;34;1232;-79
2022/07/30 00:05:14;;;;;;;497.25;452.30;;;;;;;25.71;47.74;99528.16;283791;34;5633;-78
2022/07/30 00:05:24;;;;;;;502.67;457.53;;;;;;;25.69;48.25;99527.47;283565;34;6202;-77
2022/07/30 00:05:34;;;;;;;499.65;454.50;;;;;;;25.64;48.23;99519.09;284429;34;1237;-77
2022/07/30 00:05:45;;;;;;;497.63;452.43;;;;;;;25.63;48.13;99522.72;283457;34;6536;-77
2022/07/30 00:05:55;;;;;;;502.93;457.57;;;;;;;25.68;48.07;99520.44;282776;34;5848;-79
2022/07/30 00:06:06;;;;;;;507.63;462.20;;;;;;;25.72;48.25;99522.63;282977;34;1269;-79
2022/07/30 00:06:16;;;;;;;509.63;464.13;;;;;;;25.73;48.18;99521.63;280614;35;4668;-78
2022/07/30 00:06:27;;;;;;;504.52;459.25;;;;;;;25.77;47.80;99530.19;276117;35;7635;-77
2022/07/30 00:06:38;;;;;;;499.53;454.53;;;;;;;25.77;48.28;99530.19;273474;35;7243;-79
2022/07/30 00:06:49;;;;;;;493.67;448.85;;;;;;;25.79;47.79;99521.00;274869;36;852;-78
2022/07/30 00:06:59;;;;;;;498.67;453.70;;;;;;;25.82;47.94;99519.84;271839;35;7830;-77
2022/07/30 00:07:10;;;;;;;505.23;460.23;;;;;;;25.83;47.98;99529.56;270597;36;9181;-77
2022/07/30 00:07:20;;;;;;;507.80;462.73;;;;;;;25.82;47.60;99523.34;270604;36;802;-77
2022/07/30 00:07:31;;;;;;;507.50;462.60;;;;;;;25.87;47.67;99525.56;267139;36;8118;-77
2022/07/30 00:09:24;;;;;;;440.38;395.96;;;;;;;26.05;47.15;99523.56;2496721;27;20276;-78
2022/07/30 00:09:35;;;;;;;482.33;438.50;;;;;;;26.06;47.55;99522.56;351695;28;1208;-78
2022/07/30 00:09:45;;;;;;;482.13;438.17;;;;;;;26.08;47.09;99523.25;350255;28;1404;-78
2022/07/30 00:09:55;;;;;;;479.60;435.75;;;;;;;26.05;47.40;99528.94;350161;28;1329;-78
2022/07/30 00:10:06;;;;;;;483.57;439.50;;;;;;;26.02;47.55;99526.56;350259;28;1256;-78
2022/07/30 00:10:16;;;;;;;477.73;433.75;;;;;;;25.95;47.48;99522.91;348712;28;1220;-78
2022/07/30 00:10:27;;;;;;;479.87;435.73;;;;;;;25.95;47.71;99525.59;348689;28;1224;-78
2022/07/30 00:10:38;;;;;;;480.15;436.05;;;;;;;25.96;47.56;99523.75;347500;28;1300;-78
2022/07/30 00:10:48;;;;;;;486.77;442.48;;;;;;;25.99;47.49;99532.31;347437;28;914;-78
2022/07/30 00:10:59;;;;;;;484.63;440.60;;;;;;;26.00;47.54;99525.06;347668;28;927;-78
2022/07/30 00:11:10;;;;;;;487.40;443.27;;;;;;;25.98;47.47;99530.63;346122;28;1341;-78
2022/07/30 00:11:21;;;;;;;490.52;446.30;;;;;;;25.97;47.52;99526.25;348308;28;1366;-78
2022/07/30 00:11:31;;;;;;;491.95;447.50;;;;;;;25.96;47.62;99529.09;348878;28;1251;-78
2022/07/30 00:11:42;;;;;;;490.63;446.13;;;;;;;25.93;47.67;99527.59;346000;28;1314;-78
2022/07/30 00:11:53;;;;;;;491.20;446.58;;;;;;;25.90;47.58;99525.22;348907;28;919;-78
2022/07/30 00:12:04;;;;;;;489.75;445.17;;;;;;;25.85;47.92;99532.91;349205;28;1294;-78
2022/07/30 00:12:14;;;;;;;488.58;444.08;;;;;;;25.81;47.99;99526.19;348410;28;1388;-78
2022/07/30 00:12:25;;;;;;;488.83;444.33;;;;;;;25.79;47.93;99530.88;347617;28;1226;-78
2022/07/30 00:12:35;;;;;;;485.43;441.07;;;;;;;25.76;48.12;99524.00;348697;28;1214;-78
2022/07/30 00:12:46;;;;;;;490.17;445.70;;;;;;;25.78;47.80;99521.16;346946;28;826;-78
2022/07/30 00:12:56;;;;;;;492.48;447.98;;;;;;;25.81;47.92;99526.19;347324;28;1366;-78
2022/07/30 00:13:07;;;;;;;495.93;451.47;;;;;;;25.83;48.50;99525.03;347203;28;1060;-78
2022/07/30 00:13:17;;;;;;;490.67;446.33;;;;;;;25.85;47.75;99524.88;346447;28;1208;-78
2022/07/30 00:13:28;;;;;;;492.30;447.87;;;;;;;25.83;48.08;99522.34;346010;28;1191;-78
2022/07/30 00:13:38;;;;;;;492.92;448.45;;;;;;;25.87;47.81;99525.56;342289;28;920;-78
2022/07/30 00:13:49;;;;;;;493.27;448.92;;;;;;;25.88;47.95;99527.22;345337;28;1438;-78
2022/07/30 00:13:59;;;;;;;491.47;447.00;;;;;;;25.90;47.54;99525.22;344746;28;1353;-78
2022/07/30 00:14:10;;;;;;;489.33;444.80;;;;;;;25.94;47.71;99531.09;343407;28;971;-78
2022/07/30 00:14:20;;;;;;;490.90;446.40;;;;;;;25.95;47.63;99532.78;343239;28;1187;-78
2022/07/30 00:14:31;;;;;;;495.53;450.97;;;;;;;25.98;48.00;99529.78;343563;28;825;-78
2022/07/30 00:14:41;;;;;;;496.52;452.08;;;;;;;26.01;47.52;99527.59;344803;28;1366;-78
2022/07/30 00:14:52;;;;;;;489.38;445.23;;;;;;;26.04;47.56;99527.25;343355;28;1231;-78
2022/07/30 00:15:02;;;;;;;481.47;437.57;;;;;;;26.06;47.37;99529.78;340521;28;1273;-78
2022/07/30 00:15:13;;;;;;;482.20;438.33;;;;;;;26.04;47.58;99527.25;340817;28;1200;-78
2022/07/30 00:15:23;;;;;;;486.05;442.10;;;;;;;26.02;47.43;99526.56;340549;29;1234;-78
2022/07/30 00:15:33;;;;;;;486.63;442.70;;;;;;;26.00;47.34;99525.91;342771;28;1221;-78
2022/07/30 00:15:44;;;;;;;483.85;440.17;;;;;;;25.98;47.62;99529.78;340978;28;1293;-78
2022/07/30 00:15:54;;;;;;;478.67;435.00;;;;;;;25.92;47.73;99522.38;339432;29;1200;-78
2022/07/30 00:16:06;;;;;;;485.70;441.80;;;;;;;25.91;47.48;99524.22;341612;28;1514;-79
2022/07/30 00:16:16;;;;;;;487.92;443.58;;;;;;;25.92;47.67;99533.94;342188;28;891;-79
2022/07/30 00:16:27;;;;;;;490.52;446.23;;;;;;;25.93;47.75;99518.69;339529;29;1420;-79
2022/07/30 00:16:38;;;;;;;485.77;441.53;;;;;;;25.96;47.73;99523.75;340598;29;1196;-79
2022/07/30 00:16:48;;;;;;;489.80;445.42;;;;;;;25.97;48.07;99526.25;342668;28;1221;-79
2022/07/30 00:16:58;;;;;;;491.37;446.63;;;;;;;25.99;47.72;99532.31;337965;29;1365;-79
2022/07/30 00:17:09;;;;;;;489.58;444.90;;;;;;;26.00;47.59;99530.44;336988;29;1224;-79
2022/07/30 00:17:19;;;;;;;482.63;438.33;;;;;;;26.00;47.54;99535.78;340472;28;1392;-79
2022/07/30 00:17:30;;;;;;;482.45;438.40;;;;;;;25.95;47.66;99528.25;340502;29;1278;-78
2022/07/30 00:17:40;;;;;;;478.67;434.87;;;;;;;25.94;47.76;99531.09;340725;29;1199;-78
2022/07/30 00:17:51;;;;;;;484.52;440.55;;;;;;;25.92;47.74;99533.94;338017;29;1452;-78
2022/07/30 00:18:01;;;;;;;486.43;442.03;;;;;;;25.86;47.73;99531.91;333478;29;1602;-78
2022/07/30 00:18:12;;;;;;;490.70;446.15;;;;;;;25.86;47.93;99531.91;335419;29;1418;-78
2022/07/30 00:18:22;;;;;;;488.07;443.67;;;;;;;25.85;47.98;99530.22;333983;29;1486;-78
2022/07/30 00:18:32;;;;;;;486.83;442.77;;;;;;;25.84;47.60;99532.06;336090;29;1377;-78
2022/07/30 00:18:43;;;;;;;486.97;442.93;;;;;;;25.85;47.94;99535.59;338579;29;1392;-78
2022/07/30 00:18:53;;;;;;;485.17;441.10;;;;;;;25.81;48.13;99523.50;338151;29;1455;-78
2022/07/30 00:19:04;;;;;;;484.27;440.20;;;;;;;25.79;48.33;99530.88;338067;29;1235;-78
2022/07/30 00:19:14;;;;;;;485.53;441.40;;;;;;;25.77;48.25;99524.84;334166;29;1476;-78
2022/07/30 00:19:24;;;;;;;495.15;450.88;;;;;;;25.78;48.38;99531.88;335512;29;1283;-78
2022/07/30 00:19:35;;;;;;;499.27;454.77;;;;;;;25.79;48.00;99525.50;333816;29;1726;-78
2022/07/30 00:19:46;;;;;;;501.65;457.10;;;;;;;25.75;48.20;99533.03;331142;29;2036;-79
2022/07/30 00:19:56;;;;;;;500.20;455.67;;;;;;;25.73;48.09;99534.19;330538;29;1234;-79
2022/07/30 00:20:07;;;;;;;501.23;456.70;;;;;;;25.70;48.29;99527.31;327924;30;2159;-79
2022/07/30 00:20:17;;;;;;;502.60;457.92;;;;;;;25.67;48.37;99524.13;327621;29;1923;-78
2022/07/30 00:20:28;;;;;;;504.93;460.00;;;;;;;25.67;48.62;99526.81;328036;30;1363;-78
2022/07/30 00:20:39;;;;;;;509.08;463.80;;;;;;;25.66;48.60;99523.28;324705;30;1126;-78
2022/07/30 00:20:50;;;;;;;509.65;464.42;;;;;;;25.65;48.40;99526.13;324251;30;861;-79
2022/07/30 00:21:00;;;;;;;506.02;461.23;;;;;;;25.69;48.57;99527.47;325394;30;1308;-79
2022/07/30 00:21:11;;;;;;;504.37;459.90;;;;;;;25.69;48.34;99527.47;325758;30;986;-78
2022/07/30 00:21:21;;;;;;;504.83;460.47;;;;;;;25.70;48.43;99529.16;324070;30;1865;-79
2022/07/30 00:21:32;;;;;;;505.10;460.65;;;;;;;25.70;48.14;99523.81;317419;30;2215;-79
2022/07/30 00:21:42;;;;;;;509.63;464.90;;;;;;;25.68;48.30;99525.81;317332;31;1223;-79
2022/07/30 00:21:53;;;;;;;511.55;466.73;;;;;;;25.68;48.54;99528.47;321131;30;2501;-79
2022/07/30 00:22:04;;;;;;;511.42;466.63;;;;;;;25.68;48.50;99525.81;319186;30;2682;-79
2022/07/30 00:22:14;;;;;;;510.50;465.77;;;;;;;25.70;48.32;99521.97;320020;30;2573;-79
2022/07/30 00:22:24;;;;;;;512.50;467.70;;;;;;;25.72;48.26;99521.81;325835;30;1146;-79
2022/07/30 00:22:35;;;;;;;515.30;470.40;;;;;;;25.76;48.27;99528.53;322522;30;2525;-79
2022/07/30 00:22:45;;;;;;;511.67;466.67;;;;;;;25.79;47.96;99522.84;320187;30;1674;-79
2022/07/30 00:22:56;;;;;;;505.63;460.70;;;;;;;25.80;48.28;99529.88;321839;30;1384;-79
2022/07/30 00:23:06;;;;;;;501.27;456.48;;;;;;;25.80;47.98;99524.50;320567;30;1351;-79
2022/07/30 00:23:17;;;;;;;503.30;458.23;;;;;;;25.75;48.38;99529.53;320475;30;2248;-79
2022/07/30 00:23:27;;;;;;;509.25;464.02;;;;;;;25.71;48.61;99520.97;315073;31;1338;-79
2022/07/30 00:23:37;;;;;;;506.27;460.90;;;;;;;25.68;48.45;99523.13;315710;31;2778;-78
2022/07/30 00:23:48;;;;;;;509.13;463.57;;;;;;;25.65;48.53;99526.13;317953;30;2847;-78
2022/07/30 00:23:58;;;;;;;504.92;459.48;;;;;;;25.65;48.48;99526.13;317882;30;3141;-78
2022/07/30 00:24:09;;;;;;;514.97;469.60;;;;;;;25.64;48.58;99519.09;314108;31;1211;-78
2022/07/30 00:24:20;;;;;;;512.60;467.52;;;;;;;25.65;48.61;99524.28;315244;30;3281;-78
2022/07/30 00:24:30;;;;;;;508.83;463.73;;;;;;;25.65;48.55;99521.59;312102;31;3393;-78
2022/07/30 00:24:41;;;;;;;499.93;455.00;;;;;;;25.69;48.70;99532.84;310864;31;963;-78
2022/07/30 00:24:51;;;;;;;502.27;457.15;;;;;;;25.71;48.47;99525.47;308109;31;2742;-78
2022/07/30 00:25:02;;;;;;;511.17;465.73;;;;;;;25.71;48.23;99520.97;309139;31;2511;-78
2022/07/30 00:25:13;;;;;;;517.78;471.98;;;;;;;25.69;48.46;99522.13;309564;31;1257;-78
2022/07/30 00:25:23;;;;;;;514.67;469.05;;;;;;;25.72;48.51;99527.16;309136;31;2255;-78
2022/07/30 00:25:34;;;;;;;512.67;467.33;;;;;;;25.74;48.41;99525.16;307051;32;3126;-78
2022/07/30 00:25:44;;;;;;;514.22;469.00;;;;;;;25.73;48.59;99524.31;308674;31;3657;-79
2022/07/30 00:25:54;;;;;;;517.00;471.63;;;;;;;25.75;48.24;99522.31;306520;32;1193;-79
2022/07/30 00:26:05;;;;;;;515.08;469.88;;;;;;;25.75;48.15;99527.69;304875;32;4186;-79
2022/07/30 00:26:15;;;;;;;513.20;468.17;;;;;;;25.77;48.57;99524.84;302284;32;4346;-79
2022/07/30 00:26:25;;;;;;;511.27;466.40;;;;;;;25.78;48.64;99527.34;305567;32;948;-79
2022/07/30 00:26:36;;;;;;;510.67;465.67;;;;;;;25.82;48.05;99534.09;304106;32;4767;-79
2022/07/30 00:26:46;;;;;;;511.27;466.17;;;;;;;25.85;48.26;99524.88;301483;32;4374;-79
2022/07/30 00:26:57;;;;;;;508.65;463.65;;;;;;;25.86;48.20;99518.50;302132;32;1322;-79
2022/07/30 00:27:07;;;;;;;508.00;463.17;;;;;;;25.87;48.06;99524.72;301296;32;3717;-79
2022/07/30 00:27:18;;;;;;;507.85;463.08;;;;;;;25.88;48.13;99531.75;300358;32;3064;-79
2022/07/30 00:27:30;;;;;;;507.73;462.87;;;;;;;25.90;48.10;99524.38;301239;32;3268;-79
2022/07/30 00:27:40;;;;;;;502.75;458.13;;;;;;;25.90;47.84;99527.91;299136;33;889;-79
2022/07/30 00:27:51;;;;;;;500.00;455.33;;;;;;;25.91;48.08;99528.75;294364;33;4471;-79
2022/07/30 00:28:01;;;;;;;498.98;454.40;;;;;;;25.87;47.94;99528.22;293833;33;5428;-79
2022/07/30 00:28:11;;;;;;;504.23;459.33;;;;;;;25.88;48.01;99527.22;294859;33;1325;-79
2022/07/30 00:28:22;;;;;;;504.98;459.95;;;;;;;25.84;48.30;99515.16;294372;32;5735;-78
2022/07/30 00:28:32;;;;;;;499.37;454.37;;;;;;;25.87;47.88;99525.56;292261;33;5828;-78
2022/07/30 00:28:42;;;;;;;492.00;447.35;;;;;;;25.88;47.92;99523.72;291055;34;1479;-79
2022/07/30 00:28:53;;;;;;;490.80;446.40;;;;;;;25.90;48.16;99529.75;291953;33;7987;-78
2022/07/30 00:29:04;;;;;;;495.10;450.77;;;;;;;25.90;47.94;99525.22;292388;33;5316;-79
2022/07/30 00:29:15;;;;;;;497.20;452.83;;;;;;;25.91;47.94;99529.59;290582;33;5391;-78
2022/07/30 00:29:26;;;;;;;502.90;458.23;;;;;;;25.91;48.19;99531.44;286421;34;932;-78
2022/07/30 00:29:36;;;;;;;507.03;462.13;;;;;;;25.87;47.96;99522.88;284661;34;4182;-78
2022/07/30 00:29:47;;;;;;;511.27;466.20;;;;;;;25.89;48.17;99528.06;285696;34;4926;-78
2022/07/30 00:29:57;;;;;;;509.00;464.10;;;;;;;25.88;48.17;99521.88;288254;34;1336;-78
2022/07/30 00:30:08;;;;;;;504.45;459.60;;;;;;;25.89;48.12;99520.88;283321;34;7303;-78
2022/07/30 00:30:18;;;;;;;500.73;455.97;;;;;;;25.88;48.30;99532.59;281836;34;8661;-78
2022/07/30 00:30:29;;;;;;;499.95;455.15;;;;;;;25.86;48.31;99518.50;281155;34;8982;-78
2022/07/30 00:30:39;;;;;;;496.17;451.43;;;;;;;25.84;48.33;99526.72;279059;35;1322;-78
2022/07/30 00:30:50;;;;;;;494.05;449.30;;;;;;;25.82;48.39;99527.88;273734;35;8078;-78
2022/07/30 00:31:01;;;;;;;493.20;448.60;;;;;;;25.82;48.44;99517.16;274098;35;10156;-78
2022/07/30 00:31:11;;;;;;;492.00;447.33;;;;;;;25.80;48.42;99524.50;277386;35;927;-78
2022/07/30 00:32:51;;;;;;;453.75;408.66;;;;;;;25.91;48.27;99518.84;2480200;27;20726;-78
2022/07/30 00:33:02;;;;;;;497.37;452.87;;;;;;;25.92;48.03;99517.84;348716;28;1408;-77
2022/07/30 00:33:12;;;;;;;498.73;453.97;;;;;;;25.93;47.93;99522.22;346221;28;813;-77
2022/07/30 00:33:22;;;;;;;492.10;447.27;;;;;;;25.96;48.11;99513.84;347363;28;1243;-78
2022/07/30 00:33:33;;;;;;;490.27;445.53;;;;;;;25.96;48.31;99513.84;347532;28;781;-78
2022/07/30 00:33:43;;;;;;;483.35;439.10;;;;;;;25.97;48.13;99520.06;346131;28;913;-78
2022/07/30 00:33:54;;;;;;;488.27;444.10;;;;;;;25.96;47.62;99508.47;347491;28;1212;-78
2022/07/30 00:34:04;;;;;;;487.10;443.00;;;;;;;26.00;48.03;99519.69;346092;28;1326;-78
2022/07/30 00:34:14;;;;;;;494.92;450.58;;;;;;;26.02;48.07;99518.53;346120;28;1334;-78
2022/07/30 00:34:25;;;;;;;489.37;445.27;;;;;;;26.03;47.79;99514.84;346245;28;849;-78
2022/07/30 00:34:36;;;;;;;486.88;442.85;;;;;;;26.04;47.92;99516.53;346151;28;1400;-78
2022/07/30 00:34:46;;;;;;;480.73;436.92;;;;;;;26.06;47.75;99519.88;346831;28;1332;-78
2022/07/30 00:34:56;;;;;;;478.17;434.20;;;;;;;26.06;47.87;99517.19;346628;28;1291;-78
2022/07/30 00:35:07;;;;;;;477.47;433.43;;;;;;;26.08;48.08;99517.88;347557;28;1097;-78
2022/07/30 00:35:18;;;;;;;483.15;438.85;;;;;;;26.10;48.13;99525.75;346336;28;1206;-78
2022/07/30 00:35:28;;;;;;;482.73;438.48;;;;;;;26.09;47.97;99516.88;346189;28;1325;-78
2022/07/30 00:35:39;;;;;;;482.70;438.40;;;;;;;26.10;47.78;99515.03;344771;28;916;-78
2022/07/30 00:35:49;;;;;;;479.15;434.95;;;;;;;26.12;47.75;99519.22;346090;28;1257;-78
2022/07/30 00:35:59;;;;;;;478.07;434.07;;;;;;;26.11;47.93;99512.19;344284;28;1312;-78
2022/07/30 00:36:10;;;;;;;476.13;432.38;;;;;;;26.11;48.13;99514.88;343249;28;1453;-78
2022/07/30 00:36:20;;;;;;;474.73;431.00;;;;;;;26.10;48.22;99518.56;343559;28;999;-78
2022/07/30 00:36:31;;;;;;;476.57;432.70;;;;;;;26.13;47.93;99528.13;344767;28;888;-78
2022/07/30 00:36:41;;;;;;;474.02;430.17;;;;;;;26.11;47.81;99517.56;343422;28;1154;-78
2022/07/30 00:36:52;;;;;;;475.65;431.75;;;;;;;26.13;47.73;99520.91;340815;29;1327;-78
2022/07/30 00:37:02;;;;;;;473.20;429.43;;;;;;;26.13;47.85;99526.28;339772;28;1312;-78
2022/07/30 00:37:13;;;;;;;471.55;427.67;;;;;;;26.12;47.81;99523.75;338592;29;1280;-78
2022/07/30 00:37:23;;;;;;;465.83;422.27;;;;;;;26.12;47.53;99521.91;338260;29;881;-79
2022/07/30 00:37:34;;;;;;;465.87;422.27;;;;;;;26.13;48.03;99520.06;340155;29;957;-78
2022/07/30 00:37:44;;;;;;;466.73;422.95;;;;;;;26.12;47.98;99513.03;343198;28;1228;-78
2022/07/30 00:37:54;;;;;;;470.00;426.00;;;;;;;26.12;47.81;99513.88;342045;28;1351;-78
2022/07/30 00:38:05;;;;;;;472.73;428.42;;;;;;;26.13;47.44;99515.53;343429;28;1377;-78
2022/07/30 00:38:15;;;;;;;472.43;428.33;;;;;;;26.13;47.74;99518.22;340524;29;1300;-78
2022/07/30 00:38:26;;;;;;;471.97;428.10;;;;;;;26.13;47.86;99520.91;342037;28;1407;-78
2022/07/30 00:38:36;;;;;;;468.95;425.38;;;;;;;26.15;47.50;99528.78;340717;29;896;-78
2022/07/30 00:38:46;;;;;;;466.23;422.77;;;;;;;26.16;47.96;99519.75;336476;29;1503;-78
2022/07/30 00:38:57;;;;;;;462.80;419.40;;;;;;;26.18;47.61;99517.72;336385;29;1345;-78
2022/07/30 00:39:07;;;;;;;463.63;420.27;;;;;;;26.18;47.73;99529.31;338143;29;1319;-78
2022/07/30 00:39:18;;;;;;;470.70;426.92;;;;;;;26.16;47.64;99520.59;341800;28;1278;-77
2022/07/30 00:39:29;;;;;;;470.47;426.43;;;;;;;26.17;47.71;99516.91;340374;28;1414;-78
2022/07/30 00:39:39;;;;;;;461.67;417.25;;;;;;;26.19;47.76;99520.25;337152;29;889;-78
2022/07/30 00:39:50;;;;;;;452.65;408.52;;;;;;;26.20;47.41;99529.16;339490;29;1414;-78
2022/07/30 00:40:00;;;;;;;452.40;408.53;;;;;;;26.21;47.52;99527.31;339633;29;890;-78
2022/07/30 00:40:11;;;;;;;456.20;412.75;;;;;;;26.18;47.65;99517.72;338649;29;957;-78
2022/07/30 00:40:21;;;;;;;463.57;420.00;;;;;;;26.21;47.76;99519.25;342242;28;1347;-78
2022/07/30 00:40:32;;;;;;;461.98;418.48;;;;;;;26.21;47.92;99517.41;339748;29;1293;-79
2022/07/30 00:40:42;;;;;;;462.20;418.73;;;;;;;26.23;47.76;99519.94;337752;29;1292;-78
2022/07/30 00:40:52;;;;;;;459.48;416.27;;;;;;;26.22;47.78;99521.78;335421;29;1563;-78
2022/07/30 00:41:03;;;;;;;459.43;416.27;;;;;;;26.21;47.69;99521.94;335954;29;1311;-78
2022/07/30 00:41:13;;;;;;;462.97;419.63;;;;;;;26.23;48.08;99519.94;332693;29;1506;-78
2022/07/30 00:41:24;;;;;;;463.73;420.15;;;;;;;26.19;47.63;99516.72;337946;29;1214;-78
2022/07/30 00:41:36;;;;;;;463.30;419.40;;;;;;;26.19;47.70;99525.63;331785;29;1616;-78
2022/07/30 00:41:54;;;;;;;449.45;405.98;;;;;;;26.21;47.60;99521.94;335581;29;1477;-78
2022/07/30 00:42:05;;;;;;;445.60;402.70;;;;;;;26.22;47.85;99518.25;338340;29;949;-78
2022/07/30 00:42:16;;;;;;;449.53;406.53;;;;;;;26.21;47.42;99513.88;336945;29;890;-78
2022/07/30 00:42:40;;;;;;;452.42;408.90;;;;;;;26.21;47.74;99524.63;332834;29;1197;-78
2022/07/30 00:42:50;;;;;;;452.23;409.17;;;;;;;26.19;47.79;99517.56;329642;30;1490;-78
2022/07/30 00:43:01;;;;;;;451.43;408.37;;;;;;;26.19;47.67;99520.25;330965;29;1584;-78
2022/07/30 00:43:17;;;;;;;454.33;410.90;;;;;;;26.18;47.87;99512.38;330525;29;1955;-78
2022/07/30 00:43:27;;;;;;;440.85;398.27;;;;;;;26.18;47.69;99518.56;331989;29;2122;-78
2022/07/30 00:43:38;;;;;;;445.57;402.80;;;;;;;26.18;47.60;99515.91;330376;29;1202;-79
2022/07/30 00:43:48;;;;;;;455.17;411.77;;;;;;;26.19;47.65;99514.06;330954;29;2397;-79
2022/07/30 00:43:59;;;;;;;457.73;414.05;;;;;;;26.21;47.36;99519.25;333371;29;1773;-79
2022/07/30 00:44:09;;;;;;;455.90;412.43;;;;;;;26.22;47.73;99508.34;331837;29;1277;-79
2022/07/30 00:44:19;;;;;;;455.33;412.00;;;;;;;26.23;47.83;99510.03;332686;29;1315;-79
2022/07/30 00:44:30;;;;;;;454.00;410.60;;;;;;;26.26;47.71;99508.88;330531;29;1176;-78
2022/07/30 00:44:40;;;;;;;450.33;406.95;;;;;;;26.25;47.72;99515.25;327895;30;1757;-79
2022/07/30 00:44:51;;;;;;;452.17;408.73;;;;;;;26.26;47.81;99515.06;328349;30;851;-78
2022/07/30 00:45:02;;;;;;;448.83;405.55;;;;;;;26.26;47.71;99517.75;325945;30;2089;-79
2022/07/30 00:45:14;;;;;;;445.83;402.77;;;;;;;26.27;47.54;99516.75;322035;30;2326;-79
2022/07/30 00:45:26;;;;;;;439.70;396.65;;;;;;;26.30;47.81;99515.59;324615;30;1764;-79
2022/07/30 00:45:37;;;;;;;442.60;399.50;;;;;;;26.31;47.85;99520.81;325964;30;1488;-79
2022/07/30 00:45:47;;;;;;;440.77;397.85;;;;;;;26.33;47.45;99515.28;328121;29;2664;-79
2022/07/30 00:45:58;;;;;;;441.00;397.93;;;;;;;26.34;47.60;99516.97;328303;29;2747;-79
2022/07/30 00:46:08;;;;;;;438.30;395.20;;;;;;;26.34;47.82;99514.28;324821;30;1185;-79
2022/07/30 00:46:19;;;;;;;441.33;398.17;;;;;;;26.34;47.37;99511.59;325531;30;1782;-79
2022/07/30 00:46:29;;;;;;;438.90;395.92;;;;;;;26.33;47.66;99520.66;325447;30;1345;-79
2022/07/30 00:46:39;;;;;;;442.50;399.20;;;;;;;26.34;47.45;99516.97;324501;30;1224;-79
2022/07/30 00:46:50;;;;;;;442.83;399.65;;;;;;;26.35;47.67;99513.28;320461;30;1986;-78
2022/07/30 00:47:01;;;;;;;447.77;404.33;;;;;;;26.35;47.93;99514.13;317790;30;2457;-78
2022/07/30 00:47:11;;;;;;;444.55;401.20;;;;;;;26.34;47.31;99512.44;315863;30;3308;-78
2022/07/30 00:47:22;;;;;;;445.40;401.77;;;;;;;26.36;47.84;99514.94;317605;31;1201;-78
2022/07/30 00:47:32;;;;;;;445.15;401.50;;;;;;;26.35;48.01;99514.13;313874;31;2979;-78
2022/07/30 00:47:43;;;;;;;442.77;399.47;;;;;;;26.35;47.85;99515.97;314115;31;2871;-78
2022/07/30 00:47:53;;;;;;;440.30;397.10;;;;;;;26.29;48.25;99513.91;314118;31;849;-78
2022/07/30 00:48:04;;;;;;;435.60;392.43;;;;;;;26.25;48.75;99513.41;312992;31;3573;-78
2022/07/30 00:48:15;;;;;;;438.92;395.52;;;;;;;26.24;48.79;99514.41;309787;31;3293;-78
2022/07/30 00:48:25;;;;;;;433.88;390.67;;;;;;;26.23;48.57;99519.94;309401;31;1417;-78
2022/07/30 00:48:35;;;;;;;434.67;391.47;;;;;;;26.21;48.76;99512.03;305239;32;1269;-78
2022/07/30 00:48:46;;;;;;;433.60;390.50;;;;;;;26.21;49.06;99513.88;307684;31;2283;-78
2022/07/30 00:48:56;;;;;;;438.23;395.00;;;;;;;26.18;48.86;99513.22;307813;31;2904;-78
2022/07/30 00:49:07;;;;;;;442.63;399.23;;;;;;;26.19;48.76;99514.06;305382;32;1240;-78
2022/07/30 00:49:17;;;;;;;445.53;401.90;;;;;;;26.19;48.94;99516.72;300911;32;3722;-78
2022/07/30 00:49:28;;;;;;;441.07;397.67;;;;;;;26.17;49.19;99518.75;301041;32;4164;-79
2022/07/30 00:49:38;;;;;;;441.42;398.10;;;;;;;26.15;49.18;99513.53;303246;32;979;-79
2022/07/30 00:49:48;;;;;;;442.13;398.87;;;;;;;26.17;49.29;99513.38;300389;32;4352;-79
2022/07/30 00:50:02;;;;;;;439.85;396.65;;;;;;;26.18;49.12;99513.22;296390;33;4331;-79
2022/07/30 00:50:14;;;;;;;440.90;397.70;;;;;;;26.19;49.19;99512.22;295167;32;4162;-78
2022/07/30 00:50:24;;;;;;;449.33;405.77;;;;;;;26.19;49.51;99509.53;296286;33;956;-78
2022/07/30 00:50:35;;;;;;;452.52;408.90;;;;;;;26.22;49.39;99510.19;299239;32;4344;-79
2022/07/30 00:50:45;;;;;;;451.77;408.27;;;;;;;26.23;49.96;99514.56;298508;32;3324;-79
2022/07/30 00:50:55;;;;;;;447.00;403.87;;;;;;;26.21;49.83;99516.56;298391;32;2896;-79
2022/07/30 00:51:06;;;;;;;446.42;403.13;;;;;;;26.19;49.88;99511.38;299246;33;905;-79
2022/07/30 00:51:16;;;;;;;447.63;404.13;;;;;;;26.16;49.83;99509.84;294821;33;3995;-78
2022/07/30 00:51:27;;;;;;;449.88;406.25;;;;;;;26.14;50.00;99514.53;292015;33;5811;-78
2022/07/30 00:51:37;;;;;;;449.77;406.20;;;;;;;26.14;50.26;99511.84;292027;33;1243;-78
2022/07/30 00:51:47;;;;;;;447.63;404.10;;;;;;;26.12;50.39;99511.19;292263;33;6318;-78
2022/07/30 00:51:58;;;;;;;446.08;402.50;;;;;;;26.12;50.29;99508.50;288203;34;6306;-78
2022/07/30 00:52:08;;;;;;;449.37;405.67;;;;;;;26.12;50.45;99511.19;284497;34;1252;-78
2022/07/30 00:52:19;;;;;;;455.50;411.75;;;;;;;26.13;50.74;99510.19;281123;34;6803;-78